KEQA

El Dorado / Captain Jack Thomas Memorial Airport

El Dorado, Kansas, USA
METAR KEQA 210335Z AUTO 33008KT 10SM SCT032 20/16 A3003 RMK AO2
Observed Flight Rules
Aug-21 @ 03:35 UTC (35 minutes ago) Visual Flight Rules
Wind Visibility Clouds
330° at 8 knots 10 miles
  • Scattered at 3,200' AGL
Temperatures Readings
Current 20°C / 68°F
Dewpoint 16°C / 61°F
Humidity 78%
Altimeter 30.03" Hg
Pressure 1017 hPa
Elevation 420
METAR KEQA 210335Z AUTO 33008KT 10SM SCT032 20/16 A3003 RMK AO2
Observed Flight Rules
Aug-21 @ 03:35 UTC
(35 minutes ago)
VFR
Wind Visibility
330° at 8 knots 10 miles
Clouds
  • Scattered at 3,200' AGL
Temperature Dewpoint
20°C / 68°F 16°C / 61°F
Humidity Altimeter Pressure
78% 30.03" Hg 1017 hPa